createdAt,value
2022-11-21T06:12:25.969Z,47.54
2022-11-21T06:14:52.756Z,47.93
2022-11-21T06:17:19.344Z,47.37
2022-11-21T06:19:46.543Z,47.56
2022-11-21T06:22:13.128Z,47.29
2022-11-21T06:24:39.759Z,46.54
2022-11-21T06:27:06.808Z,46.83
2022-11-21T06:29:33.481Z,46.25
2022-11-21T06:32:00.033Z,46.30
2022-11-21T06:34:27.417Z,45.84
2022-11-21T06:36:54.239Z,45.92
2022-11-21T06:39:20.815Z,45.83
2022-11-21T06:41:51.130Z,45.90
2022-11-21T06:44:18.561Z,45.51
2022-11-21T06:46:49.759Z,45.21
2022-11-21T06:49:17.960Z,45.07
2022-11-21T06:51:45.092Z,45.56
2022-11-21T06:54:16.588Z,45.12
2022-11-21T06:56:43.717Z,45.30
2022-11-21T06:59:10.616Z,44.79
2022-11-21T07:01:37.316Z,45.07
2022-11-21T07:04:04.079Z,44.85
2022-11-21T07:06:30.629Z,44.60
2022-11-21T07:11:44.393Z,44.70
2022-11-21T07:14:10.997Z,44.31
2022-11-21T07:16:38.029Z,44.13
2022-11-21T07:19:06.958Z,44.15
2022-11-21T07:21:33.525Z,44.11
2022-11-21T07:24:00.096Z,43.94
2022-11-21T07:26:26.701Z,43.87
2022-11-21T07:28:53.409Z,44.21
2022-11-21T07:31:20.309Z,43.78
2022-11-21T07:33:47.911Z,43.88
2022-11-21T07:36:14.737Z,44.28
2022-11-21T07:38:41.728Z,44.21
2022-11-21T07:41:09.433Z,44.02
2022-11-21T07:43:35.975Z,43.71
2022-11-21T07:46:02.633Z,43.77
2022-11-21T07:48:29.226Z,43.55
2022-11-21T07:50:55.872Z,43.82
2022-11-21T07:53:22.442Z,43.70
2022-11-21T07:55:49.224Z,43.44
2022-11-21T07:58:16.872Z,43.61
2022-11-21T08:00:43.722Z,43.78
2022-11-21T08:03:12.199Z,43.30
2022-11-21T08:05:41.585Z,43.53
2022-11-21T08:08:09.212Z,43.46
2022-11-21T08:10:39.955Z,43.30
2022-11-21T08:13:06.718Z,43.10
2022-11-21T08:15:33.954Z,43.26
2022-11-21T08:18:07.840Z,43.01
2022-11-21T08:20:34.437Z,42.92
2022-11-21T08:23:02.971Z,42.98
2022-11-21T08:25:30.168Z,43.30
2022-11-21T08:27:57.599Z,43.14
2022-11-21T08:30:25.012Z,42.96
2022-11-21T08:32:51.986Z,43.04
2022-11-21T08:35:19.170Z,43.05
2022-11-21T08:37:47.261Z,42.93
2022-11-21T08:40:15.025Z,43.23
2022-11-21T08:42:41.738Z,42.92
2022-11-21T08:45:08.857Z,43.04
2022-11-21T08:47:35.473Z,42.96
2022-11-21T08:50:07.340Z,43.08
2022-11-21T08:52:35.600Z,43.13
2022-11-21T08:55:03.044Z,43.05
2022-11-21T08:57:31.425Z,42.68
2022-11-21T08:59:57.990Z,42.60
2022-11-21T09:02:24.817Z,42.67
2022-11-21T09:04:51.350Z,42.41
2022-11-21T09:07:17.918Z,42.69
2022-11-21T09:09:44.594Z,42.88
2022-11-21T09:12:11.736Z,42.58
2022-11-21T09:14:57.174Z,42.56
2022-11-21T09:17:42.349Z,42.53
2022-11-21T09:20:09.219Z,42.68
2022-11-21T09:22:35.925Z,42.50
2022-11-21T09:25:04.765Z,42.61
2022-11-21T09:27:31.397Z,42.29
2022-11-21T09:29:57.968Z,42.18
2022-11-21T09:32:26.814Z,42.57
2022-11-21T09:34:53.514Z,42.21
2022-11-21T09:37:20.052Z,42.10
2022-11-21T09:39:47.417Z,42.31
2022-11-21T09:42:33.524Z,42.18
2022-11-21T09:45:14.265Z,42.26
2022-11-21T09:47:49.489Z,41.92
2022-11-21T09:50:15.961Z,42.22
2022-11-21T09:52:57.915Z,41.96
2022-11-21T09:55:35.398Z,41.93
2022-11-21T09:58:13.378Z,42.16
2022-11-21T10:00:40.005Z,41.86
2022-11-21T10:03:11.112Z,41.82
2022-11-21T10:05:44.305Z,41.80
2022-11-21T10:08:30.688Z,41.99
2022-11-21T10:11:33.802Z,41.87
2022-11-21T10:16:53.805Z,41.54
2022-11-21T10:19:54.220Z,41.75
2022-11-21T10:22:34.877Z,41.71
2022-11-21T10:25:16.169Z,41.70
2022-11-21T10:27:53.757Z,41.47
2022-11-21T10:30:21.734Z,41.58
2022-11-21T10:32:55.028Z,41.79
2022-11-21T10:35:24.246Z,41.51
2022-11-21T10:37:56.087Z,41.75
2022-11-21T10:40:55.248Z,41.60
2022-11-21T10:43:58.209Z,41.49
2022-11-21T10:46:24.775Z,41.61
2022-11-21T10:48:58.993Z,41.77
2022-11-21T10:51:34.717Z,41.96
2022-11-21T10:54:28.024Z,41.65
2022-11-21T10:56:58.872Z,41.80
2022-11-21T10:59:30.783Z,41.70
2022-11-21T11:02:03.620Z,41.49
2022-11-21T11:04:37.627Z,41.44
2022-11-21T11:07:22.390Z,41.74
2022-11-21T11:09:49.689Z,41.56
2022-11-21T11:12:50.873Z,41.21
2022-11-21T11:15:23.385Z,41.40
2022-11-21T11:17:57.343Z,41.42
2022-11-21T11:20:33.050Z,41.49
2022-11-21T11:22:59.885Z,41.47
2022-11-21T11:25:26.719Z,41.50
2022-11-21T11:27:53.356Z,41.54
2022-11-21T11:30:20.234Z,41.34
2022-11-21T11:32:48.091Z,41.43
2022-11-21T11:35:17.432Z,41.39
2022-11-21T11:37:55.165Z,41.39
2022-11-21T11:40:30.886Z,41.09
2022-11-21T11:43:34.615Z,41.19
2022-11-21T11:46:45.197Z,40.89
2022-11-21T11:49:21.976Z,40.88
2022-11-21T11:51:57.300Z,40.80
2022-11-21T11:54:28.004Z,40.85
2022-11-21T11:56:55.058Z,40.90
2022-11-21T11:59:26.631Z,40.82
2022-11-21T12:02:18.101Z,40.56
2022-11-21T12:04:48.882Z,40.82
2022-11-21T12:10:16.172Z,40.29
2022-11-21T12:12:45.931Z,40.31
2022-11-21T12:15:44.237Z,40.62
2022-11-21T12:18:20.409Z,40.07
2022-11-21T12:21:05.071Z,40.09
2022-11-21T12:23:41.194Z,40.13
2022-11-21T12:26:16.533Z,40.16
2022-11-21T12:28:59.929Z,40.27
2022-11-21T12:31:37.047Z,40.03
2022-11-21T12:34:33.993Z,40.34
2022-11-21T12:37:03.421Z,40.35
2022-11-21T12:39:36.902Z,40.36
2022-11-21T12:42:47.335Z,40.09
2022-11-21T12:46:02.605Z,40.31
2022-11-21T12:49:12.657Z,40.25
2022-11-21T12:51:59.335Z,40.68
2022-11-21T12:54:39.176Z,40.03
2022-11-21T12:57:10.686Z,40.05
2022-11-21T12:59:58.762Z,40.05
2022-11-21T13:03:02.786Z,40.14
2022-11-21T13:05:31.745Z,39.83
2022-11-21T13:08:02.928Z,40.10
2022-11-21T13:10:30.026Z,39.91
2022-11-21T13:13:07.835Z,40.11
2022-11-21T13:15:46.357Z,40.25
2022-11-21T13:18:26.189Z,39.94
2022-11-21T13:20:53.933Z,40.16
2022-11-21T13:23:38.295Z,40.27
2022-11-21T13:26:30.016Z,40.07
2022-11-21T13:29:15.729Z,40.29
2022-11-21T13:31:42.340Z,40.55
2022-11-21T13:34:31.009Z,40.17
2022-11-21T13:36:58.469Z,40.39
2022-11-21T13:39:28.419Z,40.42
2022-11-21T13:42:21.758Z,40.53
2022-11-21T13:44:49.136Z,40.64
2022-11-21T13:47:41.126Z,40.47
2022-11-21T13:50:31.570Z,40.38
2022-11-21T13:53:15.925Z,40.42
2022-11-21T13:55:47.159Z,40.48
2022-11-21T13:58:38.669Z,40.69
2022-11-21T14:01:21.032Z,40.90
2022-11-21T14:04:09.449Z,40.67
2022-11-21T14:06:37.667Z,40.65
2022-11-21T14:09:18.499Z,40.77
2022-11-21T14:11:49.889Z,40.66
2022-11-21T14:14:33.140Z,40.49
2022-11-21T14:17:22.919Z,40.53
2022-11-21T14:19:52.022Z,40.54
2022-11-21T14:22:31.877Z,40.70
2022-11-21T14:25:00.529Z,40.57
2022-11-21T14:27:40.912Z,40.51
2022-11-21T14:30:32.897Z,40.37
2022-11-21T14:33:22.053Z,40.21
2022-11-21T14:35:58.451Z,40.06
2022-11-21T14:38:25.470Z,40.16
2022-11-21T14:41:27.079Z,40.13
2022-11-21T14:43:59.360Z,40.03
2022-11-21T14:46:31.015Z,40.08
2022-11-21T14:49:12.756Z,39.78
2022-11-21T14:51:40.758Z,39.93
2022-11-21T14:54:13.288Z,39.96
2022-11-21T14:56:40.421Z,40.09
2022-11-21T14:59:13.810Z,40.01
2022-11-21T15:01:46.234Z,39.86
2022-11-21T15:04:15.299Z,39.94
2022-11-21T15:06:44.013Z,39.93
2022-11-21T15:12:07.741Z,39.75
2022-11-21T15:14:42.740Z,39.82
2022-11-21T15:17:14.109Z,39.79
2022-11-21T15:19:41.818Z,39.66
2022-11-21T15:22:44.732Z,39.82
2022-11-21T15:25:20.617Z,39.54
2022-11-21T15:28:09.259Z,39.68
2022-11-21T15:30:39.825Z,39.81
2022-11-21T15:33:20.076Z,39.64
2022-11-21T15:35:54.652Z,39.57
2022-11-21T15:38:31.234Z,39.65
2022-11-21T15:41:03.223Z,39.64
2022-11-21T15:43:43.428Z,39.59
2022-11-21T15:46:24.473Z,39.64
2022-11-21T15:48:53.239Z,39.43
2022-11-21T15:51:43.945Z,39.47
2022-11-21T15:54:13.868Z,39.37
2022-11-21T15:56:40.667Z,39.56
2022-11-21T15:59:08.153Z,39.35
2022-11-21T16:01:35.361Z,39.32
2022-11-21T16:04:04.824Z,39.26
2022-11-21T16:06:33.921Z,39.21
2022-11-21T16:09:01.282Z,39.16
2022-11-21T16:11:29.711Z,39.28
2022-11-21T16:14:00.831Z,39.07
2022-11-21T16:16:29.309Z,38.90
2022-11-21T16:18:59.590Z,39.03
2022-11-21T16:21:26.910Z,39.11
2022-11-21T16:23:55.742Z,38.92
2022-11-21T16:26:27.663Z,38.81
2022-11-21T16:28:58.316Z,38.64
2022-11-21T16:31:29.303Z,38.93
2022-11-21T16:33:56.840Z,39.03
2022-11-21T16:36:28.425Z,38.95
2022-11-21T16:38:55.100Z,38.90
2022-11-21T16:41:22.918Z,38.97
2022-11-21T16:43:54.355Z,39.06
2022-11-21T16:46:23.272Z,39.47
2022-11-21T16:48:57.889Z,39.07
2022-11-21T16:51:24.475Z,39.12
2022-11-21T16:53:51.979Z,39.30
2022-11-21T16:56:18.653Z,39.04
2022-11-21T16:58:45.230Z,39.33
2022-11-21T17:01:14.756Z,39.07
2022-11-21T17:03:42.821Z,39.54
2022-11-21T17:06:10.589Z,39.50
2022-11-21T17:08:37.501Z,39.24
2022-11-21T17:11:28.177Z,39.34
2022-11-21T17:13:55.945Z,39.21
2022-11-21T17:16:23.207Z,39.04
2022-11-21T17:18:57.287Z,39.24
2022-11-21T17:21:25.014Z,38.97
2022-11-21T17:23:52.656Z,39.29
2022-11-21T17:26:21.616Z,39.38
2022-11-21T17:28:52.495Z,39.32
2022-11-21T17:31:19.197Z,38.96
2022-11-21T17:33:50.570Z,39.19
2022-11-21T17:36:19.651Z,39.29
2022-11-21T17:38:47.874Z,39.01
2022-11-21T17:41:17.193Z,39.15
2022-11-21T17:43:44.347Z,38.84
2022-11-21T17:46:16.792Z,38.95
2022-11-21T17:48:47.461Z,38.80
2022-11-21T17:51:20.079Z,38.97
2022-11-21T17:53:49.084Z,38.84
2022-11-21T17:56:18.113Z,38.91
2022-11-21T17:58:45.091Z,38.79
2022-11-21T18:01:18.460Z,38.61
2022-11-21T18:03:47.097Z,38.96
2022-11-21T18:06:15.645Z,38.76
2022-11-21T18:08:45.157Z,38.61
2022-11-21T18:11:13.204Z,38.63
2022-11-21T18:13:40.157Z,38.78
2022-11-21T18:16:09.601Z,38.94
2022-11-21T18:18:37.303Z,38.83
2022-11-21T18:21:03.824Z,38.85
2022-11-21T18:23:30.432Z,38.90
2022-11-21T18:26:14.074Z,38.85
2022-11-21T18:28:40.930Z,38.89
2022-11-21T18:31:13.129Z,38.83
2022-11-21T18:33:40.451Z,38.81
2022-11-21T18:36:08.408Z,38.19
2022-11-21T18:38:58.315Z,38.17
2022-11-21T18:41:26.388Z,38.18
2022-11-21T18:43:54.971Z,37.97
2022-11-21T18:46:23.127Z,37.85
2022-11-21T18:49:05.900Z,37.63
2022-11-21T18:51:33.450Z,38.07
2022-11-21T18:54:07.126Z,37.32
2022-11-21T18:56:35.099Z,37.21
2022-11-21T18:59:03.243Z,37.15
2022-11-21T19:01:31.636Z,36.97
2022-11-21T19:03:58.669Z,36.83
2022-11-21T19:06:26.464Z,36.79
2022-11-21T19:08:54.415Z,36.58
2022-11-21T19:11:22.571Z,36.44
2022-11-21T19:13:49.358Z,36.37
2022-11-21T19:16:20.881Z,36.26
2022-11-21T19:19:05.227Z,36.45
2022-11-21T19:21:37.972Z,36.30
2022-11-21T19:24:06.677Z,36.07
2022-11-21T19:26:33.316Z,36.03
2022-11-21T19:29:00.305Z,36.06
2022-11-21T19:31:26.964Z,35.76
